sensor_id;sensor_type;location;lat;lon;timestamp;P1;durP1;ratioP1;P2;durP2;ratioP2
11348;SDS011;5729;43.570;27.826;2023-03-01T00:00:52;10.77;;;6.87;;
11348;SDS011;5729;43.570;27.826;2023-03-01T00:03:18;10.40;;;6.87;;
11348;SDS011;5729;43.570;27.826;2023-03-01T00:05:46;11.63;;;6.37;;
11348;SDS011;5729;43.570;27.826;2023-03-01T00:08:12;14.33;;;7.03;;
11348;SDS011;5729;43.570;27.826;2023-03-01T00:10:38;10.10;;;6.67;;
11348;SDS011;5729;43.570;27.826;2023-03-01T00:13:03;11.13;;;7.50;;
11348;SDS011;5729;43.570;27.826;2023-03-01T00:15:30;8.97;;;7.00;;
11348;SDS011;5729;43.570;27.826;2023-03-01T00:17:56;9.93;;;7.10;;
11348;SDS011;5729;43.570;27.826;2023-03-01T00:20:22;10.30;;;7.53;;
11348;SDS011;5729;43.570;27.826;2023-03-01T00:22:48;12.33;;;8.03;;
11348;SDS011;5729;43.570;27.826;2023-03-01T00:25:13;11.27;;;7.17;;
11348;SDS011;5729;43.570;27.826;2023-03-01T00:27:39;13.57;;;8.17;;
11348;SDS011;5729;43.570;27.826;2023-03-01T00:30:04;9.57;;;6.93;;
11348;SDS011;5729;43.570;27.826;2023-03-01T00:32:30;11.67;;;7.90;;
11348;SDS011;5729;43.570;27.826;2023-03-01T00:34:56;14.33;;;7.80;;
11348;SDS011;5729;43.570;27.826;2023-03-01T00:37:21;10.80;;;7.73;;
11348;SDS011;5729;43.570;27.826;2023-03-01T00:39:48;13.13;;;7.83;;
11348;SDS011;5729;43.570;27.826;2023-03-01T00:42:13;11.53;;;7.50;;
11348;SDS011;5729;43.570;27.826;2023-03-01T00:44:39;10.30;;;7.40;;
11348;SDS011;5729;43.570;27.826;2023-03-01T00:47:04;13.27;;;8.60;;
11348;SDS011;5729;43.570;27.826;2023-03-01T00:49:30;11.37;;;8.07;;
11348;SDS011;5729;43.570;27.826;2023-03-01T00:51:55;11.83;;;8.03;;
11348;SDS011;5729;43.570;27.826;2023-03-01T00:54:21;14.80;;;7.97;;
11348;SDS011;5729;43.570;27.826;2023-03-01T00:56:46;15.53;;;8.00;;
11348;SDS011;5729;43.570;27.826;2023-03-01T00:59:12;12.80;;;8.47;;
11348;SDS011;5729;43.570;27.826;2023-03-01T01:01:37;12.53;;;8.10;;
11348;SDS011;5729;43.570;27.826;2023-03-01T01:04:04;13.57;;;8.20;;
11348;SDS011;5729;43.570;27.826;2023-03-01T01:06:33;10.50;;;8.17;;
11348;SDS011;5729;43.570;27.826;2023-03-01T01:09:00;12.30;;;7.97;;
11348;SDS011;5729;43.570;27.826;2023-03-01T01:11:28;13.30;;;7.47;;
11348;SDS011;5729;43.570;27.826;2023-03-01T01:13:54;11.47;;;8.27;;
11348;SDS011;5729;43.570;27.826;2023-03-01T01:16:21;13.93;;;8.30;;
11348;SDS011;5729;43.570;27.826;2023-03-01T01:18:48;13.23;;;8.07;;
11348;SDS011;5729;43.570;27.826;2023-03-01T01:21:17;11.97;;;8.27;;
11348;SDS011;5729;43.570;27.826;2023-03-01T01:23:45;10.63;;;7.73;;
11348;SDS011;5729;43.570;27.826;2023-03-01T01:26:15;12.80;;;8.33;;
11348;SDS011;5729;43.570;27.826;2023-03-01T01:28:44;12.07;;;8.13;;
11348;SDS011;5729;43.570;27.826;2023-03-01T01:31:10;14.20;;;8.27;;
11348;SDS011;5729;43.570;27.826;2023-03-01T01:33:35;12.93;;;8.20;;
11348;SDS011;5729;43.570;27.826;2023-03-01T01:36:02;10.07;;;7.77;;
11348;SDS011;5729;43.570;27.826;2023-03-01T01:38:29;12.77;;;8.27;;
11348;SDS011;5729;43.570;27.826;2023-03-01T01:40:55;13.17;;;8.43;;
11348;SDS011;5729;43.570;27.826;2023-03-01T01:45:47;17.27;;;9.20;;
11348;SDS011;5729;43.570;27.826;2023-03-01T01:48:15;11.90;;;9.00;;
11348;SDS011;5729;43.570;27.826;2023-03-01T01:50:45;12.23;;;8.87;;
11348;SDS011;5729;43.570;27.826;2023-03-01T01:53:20;11.73;;;8.40;;
11348;SDS011;5729;43.570;27.826;2023-03-01T01:55:47;14.27;;;9.03;;
11348;SDS011;5729;43.570;27.826;2023-03-01T01:58:18;14.00;;;9.10;;
11348;SDS011;5729;43.570;27.826;2023-03-01T02:00:45;16.83;;;11.40;;
11348;SDS011;5729;43.570;27.826;2023-03-01T02:03:13;15.03;;;10.23;;
11348;SDS011;5729;43.570;27.826;2023-03-01T02:06:01;15.63;;;10.70;;
11348;SDS011;5729;43.570;27.826;2023-03-01T02:08:31;15.90;;;10.47;;
11348;SDS011;5729;43.570;27.826;2023-03-01T02:11:00;16.00;;;10.30;;
11348;SDS011;5729;43.570;27.826;2023-03-01T02:13:26;20.07;;;12.00;;
11348;SDS011;5729;43.570;27.826;2023-03-01T02:15:52;20.27;;;11.43;;
11348;SDS011;5729;43.570;27.826;2023-03-01T02:18:18;16.37;;;11.13;;
11348;SDS011;5729;43.570;27.826;2023-03-01T02:23:23;12.03;;;9.23;;
11348;SDS011;5729;43.570;27.826;2023-03-01T02:26:00;13.77;;;10.27;;
11348;SDS011;5729;43.570;27.826;2023-03-01T02:28:33;13.93;;;10.70;;
11348;SDS011;5729;43.570;27.826;2023-03-01T02:31:01;16.37;;;10.67;;
11348;SDS011;5729;43.570;27.826;2023-03-01T02:33:46;17.20;;;10.83;;
11348;SDS011;5729;43.570;27.826;2023-03-01T02:36:20;16.97;;;10.87;;
11348;SDS011;5729;43.570;27.826;2023-03-01T02:38:50;16.63;;;10.77;;
11348;SDS011;5729;43.570;27.826;2023-03-01T02:41:19;12.67;;;9.53;;
11348;SDS011;5729;43.570;27.826;2023-03-01T02:43:46;16.47;;;10.77;;
11348;SDS011;5729;43.570;27.826;2023-03-01T02:46:17;18.13;;;11.90;;
11348;SDS011;5729;43.570;27.826;2023-03-01T02:48:46;17.30;;;11.07;;
11348;SDS011;5729;43.570;27.826;2023-03-01T02:54:08;19.10;;;11.93;;
11348;SDS011;5729;43.570;27.826;2023-03-01T02:56:44;18.97;;;12.80;;
11348;SDS011;5729;43.570;27.826;2023-03-01T02:59:13;18.53;;;11.67;;
11348;SDS011;5729;43.570;27.826;2023-03-01T03:01:40;19.70;;;12.33;;
11348;SDS011;5729;43.570;27.826;2023-03-01T03:04:08;17.70;;;12.33;;
11348;SDS011;5729;43.570;27.826;2023-03-01T03:06:35;20.53;;;13.67;;
11348;SDS011;5729;43.570;27.826;2023-03-01T03:09:02;18.50;;;12.17;;
11348;SDS011;5729;43.570;27.826;2023-03-01T03:11:28;19.53;;;13.57;;
11348;SDS011;5729;43.570;27.826;2023-03-01T03:13:55;19.60;;;12.80;;
11348;SDS011;5729;43.570;27.826;2023-03-01T03:16:21;19.80;;;13.43;;
11348;SDS011;5729;43.570;27.826;2023-03-01T03:18:47;18.50;;;12.30;;
11348;SDS011;5729;43.570;27.826;2023-03-01T03:21:14;18.67;;;12.47;;
11348;SDS011;5729;43.570;27.826;2023-03-01T03:23:40;18.00;;;11.90;;
11348;SDS011;5729;43.570;27.826;2023-03-01T03:26:05;19.83;;;13.00;;
11348;SDS011;5729;43.570;27.826;2023-03-01T03:28:31;18.00;;;12.93;;
11348;SDS011;5729;43.570;27.826;2023-03-01T03:30:58;18.57;;;12.90;;
11348;SDS011;5729;43.570;27.826;2023-03-01T03:33:23;17.00;;;12.40;;
11348;SDS011;5729;43.570;27.826;2023-03-01T03:35:50;19.83;;;13.40;;
11348;SDS011;5729;43.570;27.826;2023-03-01T03:38:17;19.35;;;13.27;;
11348;SDS011;5729;43.570;27.826;2023-03-01T03:40:51;16.33;;;11.87;;
11348;SDS011;5729;43.570;27.826;2023-03-01T03:43:26;19.63;;;13.43;;
11348;SDS011;5729;43.570;27.826;2023-03-01T03:45:52;18.40;;;13.40;;
11348;SDS011;5729;43.570;27.826;2023-03-01T03:48:17;19.43;;;12.33;;
11348;SDS011;5729;43.570;27.826;2023-03-01T03:50:47;16.83;;;11.73;;
11348;SDS011;5729;43.570;27.826;2023-03-01T03:53:14;18.23;;;12.70;;
11348;SDS011;5729;43.570;27.826;2023-03-01T03:55:40;17.10;;;12.00;;
11348;SDS011;5729;43.570;27.826;2023-03-01T03:58:07;23.03;;;14.03;;
11348;SDS011;5729;43.570;27.826;2023-03-01T04:00:35;19.45;;;12.85;;
11348;SDS011;5729;43.570;27.826;2023-03-01T04:03:05;18.20;;;12.33;;
11348;SDS011;5729;43.570;27.826;2023-03-01T04:05:31;18.98;;;13.18;;
11348;SDS011;5729;43.570;27.826;2023-03-01T04:07:57;19.43;;;13.27;;
11348;SDS011;5729;43.570;27.826;2023-03-01T04:10:35;22.43;;;12.67;;
11348;SDS011;5729;43.570;27.826;2023-03-01T04:13:06;18.70;;;12.83;;
11348;SDS011;5729;43.570;27.826;2023-03-01T04:15:32;18.97;;;12.73;;
11348;SDS011;5729;43.570;27.826;2023-03-01T04:17:58;20.02;;;12.95;;
11348;SDS011;5729;43.570;27.826;2023-03-01T04:20:29;18.50;;;13.57;;
11348;SDS011;5729;43.570;27.826;2023-03-01T04:25:42;22.73;;;13.57;;
11348;SDS011;5729;43.570;27.826;2023-03-01T04:28:08;19.27;;;13.00;;
11348;SDS011;5729;43.570;27.826;2023-03-01T04:30:34;20.10;;;13.27;;
11348;SDS011;5729;43.570;27.826;2023-03-01T04:33:02;19.37;;;13.30;;
11348;SDS011;5729;43.570;27.826;2023-03-01T04:35:29;20.90;;;12.57;;
11348;SDS011;5729;43.570;27.826;2023-03-01T04:37:55;21.27;;;14.00;;
11348;SDS011;5729;43.570;27.826;2023-03-01T04:40:21;17.60;;;12.83;;
11348;SDS011;5729;43.570;27.826;2023-03-01T04:42:46;22.60;;;13.40;;
11348;SDS011;5729;43.570;27.826;2023-03-01T04:45:12;24.40;;;13.20;;
11348;SDS011;5729;43.570;27.826;2023-03-01T04:47:41;19.73;;;13.50;;
11348;SDS011;5729;43.570;27.826;2023-03-01T04:50:09;21.33;;;13.93;;
11348;SDS011;5729;43.570;27.826;2023-03-01T04:52:36;18.23;;;12.87;;
11348;SDS011;5729;43.570;27.826;2023-03-01T04:55:02;19.23;;;12.83;;
11348;SDS011;5729;43.570;27.826;2023-03-01T04:57:28;18.67;;;12.77;;
11348;SDS011;5729;43.570;27.826;2023-03-01T04:59:54;20.83;;;13.40;;
11348;SDS011;5729;43.570;27.826;2023-03-01T05:02:19;25.37;;;15.10;;
11348;SDS011;5729;43.570;27.826;2023-03-01T05:04:45;20.70;;;14.23;;
11348;SDS011;5729;43.570;27.826;2023-03-01T05:07:10;19.87;;;13.07;;
11348;SDS011;5729;43.570;27.826;2023-03-01T05:09:38;19.33;;;13.03;;
11348;SDS011;5729;43.570;27.826;2023-03-01T05:12:03;17.37;;;12.70;;
11348;SDS011;5729;43.570;27.826;2023-03-01T05:14:29;21.30;;;14.23;;
11348;SDS011;5729;43.570;27.826;2023-03-01T05:16:55;20.97;;;13.80;;
11348;SDS011;5729;43.570;27.826;2023-03-01T05:19:20;20.10;;;13.33;;
11348;SDS011;5729;43.570;27.826;2023-03-01T05:21:47;20.13;;;13.97;;
11348;SDS011;5729;43.570;27.826;2023-03-01T05:24:32;20.87;;;13.60;;
11348;SDS011;5729;43.570;27.826;2023-03-01T05:26:59;22.87;;;14.77;;
11348;SDS011;5729;43.570;27.826;2023-03-01T05:29:27;22.87;;;14.43;;
11348;SDS011;5729;43.570;27.826;2023-03-01T05:31:56;23.17;;;15.77;;
11348;SDS011;5729;43.570;27.826;2023-03-01T05:34:28;20.43;;;13.70;;
11348;SDS011;5729;43.570;27.826;2023-03-01T05:36:55;19.87;;;14.27;;
11348;SDS011;5729;43.570;27.826;2023-03-01T05:39:21;19.23;;;13.57;;
11348;SDS011;5729;43.570;27.826;2023-03-01T05:41:51;21.97;;;15.13;;
11348;SDS011;5729;43.570;27.826;2023-03-01T05:44:17;20.67;;;14.33;;
11348;SDS011;5729;43.570;27.826;2023-03-01T05:46:42;23.00;;;15.17;;
11348;SDS011;5729;43.570;27.826;2023-03-01T05:49:08;23.30;;;14.90;;
11348;SDS011;5729;43.570;27.826;2023-03-01T05:51:33;22.67;;;15.23;;
11348;SDS011;5729;43.570;27.826;2023-03-01T05:53:59;24.80;;;14.93;;
11348;SDS011;5729;43.570;27.826;2023-03-01T05:56:24;20.02;;;14.10;;
11348;SDS011;5729;43.570;27.826;2023-03-01T05:58:50;25.33;;;15.63;;
11348;SDS011;5729;43.570;27.826;2023-03-01T06:01:15;19.10;;;13.70;;
11348;SDS011;5729;43.570;27.826;2023-03-01T06:03:41;21.17;;;14.82;;
11348;SDS011;5729;43.570;27.826;2023-03-01T06:06:06;20.00;;;14.77;;
11348;SDS011;5729;43.570;27.826;2023-03-01T06:08:32;25.60;;;14.83;;
11348;SDS011;5729;43.570;27.826;2023-03-01T06:10:57;22.27;;;14.63;;
11348;SDS011;5729;43.570;27.826;2023-03-01T06:13:23;24.57;;;14.70;;
11348;SDS011;5729;43.570;27.826;2023-03-01T06:15:49;21.40;;;14.97;;
11348;SDS011;5729;43.570;27.826;2023-03-01T06:18:14;21.23;;;14.47;;
11348;SDS011;5729;43.570;27.826;2023-03-01T06:20:40;19.53;;;14.20;;
11348;SDS011;5729;43.570;27.826;2023-03-01T06:23:05;21.03;;;13.67;;
11348;SDS011;5729;43.570;27.826;2023-03-01T06:25:31;19.00;;;14.03;;
11348;SDS011;5729;43.570;27.826;2023-03-01T06:27:57;18.50;;;14.00;;
11348;SDS011;5729;43.570;27.826;2023-03-01T06:30:23;30.87;;;20.93;;
11348;SDS011;5729;43.570;27.826;2023-03-01T06:32:50;89.90;;;55.13;;
11348;SDS011;5729;43.570;27.826;2023-03-01T06:35:16;94.53;;;54.23;;
11348;SDS011;5729;43.570;27.826;2023-03-01T06:37:43;73.23;;;42.90;;
11348;SDS011;5729;43.570;27.826;2023-03-01T06:40:10;27.73;;;19.07;;
11348;SDS011;5729;43.570;27.826;2023-03-01T06:42:40;23.87;;;17.17;;
11348;SDS011;5729;43.570;27.826;2023-03-01T06:45:07;22.70;;;14.87;;
11348;SDS011;5729;43.570;27.826;2023-03-01T06:47:34;24.80;;;16.30;;
11348;SDS011;5729;43.570;27.826;2023-03-01T06:50:00;25.17;;;17.10;;
11348;SDS011;5729;43.570;27.826;2023-03-01T06:52:26;22.83;;;16.03;;
11348;SDS011;5729;43.570;27.826;2023-03-01T06:54:51;23.43;;;15.27;;
11348;SDS011;5729;43.570;27.826;2023-03-01T06:57:17;23.23;;;15.87;;
11348;SDS011;5729;43.570;27.826;2023-03-01T06:59:43;23.20;;;17.40;;
11348;SDS011;5729;43.570;27.826;2023-03-01T07:02:11;23.37;;;14.63;;
11348;SDS011;5729;43.570;27.826;2023-03-01T07:04:38;23.63;;;15.57;;
11348;SDS011;5729;43.570;27.826;2023-03-01T07:07:03;25.10;;;15.77;;
11348;SDS011;5729;43.570;27.826;2023-03-01T07:09:29;32.00;;;19.47;;
11348;SDS011;5729;43.570;27.826;2023-03-01T07:11:55;25.80;;;17.73;;
11348;SDS011;5729;43.570;27.826;2023-03-01T07:14:21;31.73;;;17.67;;
11348;SDS011;5729;43.570;27.826;2023-03-01T07:16:49;22.50;;;15.83;;
11348;SDS011;5729;43.570;27.826;2023-03-01T07:19:15;22.13;;;15.20;;
11348;SDS011;5729;43.570;27.826;2023-03-01T07:21:41;21.90;;;14.60;;
11348;SDS011;5729;43.570;27.826;2023-03-01T07:24:06;24.40;;;15.03;;
11348;SDS011;5729;43.570;27.826;2023-03-01T07:26:32;22.37;;;15.63;;
11348;SDS011;5729;43.570;27.826;2023-03-01T07:29:01;46.00;;;29.73;;
11348;SDS011;5729;43.570;27.826;2023-03-01T07:31:28;35.63;;;23.13;;
11348;SDS011;5729;43.570;27.826;2023-03-01T07:33:54;24.67;;;16.60;;
11348;SDS011;5729;43.570;27.826;2023-03-01T07:36:20;23.03;;;16.23;;
11348;SDS011;5729;43.570;27.826;2023-03-01T07:38:46;25.43;;;15.90;;
11348;SDS011;5729;43.570;27.826;2023-03-01T07:41:11;26.73;;;17.07;;
11348;SDS011;5729;43.570;27.826;2023-03-01T07:43:37;25.17;;;16.03;;
11348;SDS011;5729;43.570;27.826;2023-03-01T07:46:03;23.65;;;16.15;;
11348;SDS011;5729;43.570;27.826;2023-03-01T07:48:29;23.97;;;16.07;;
11348;SDS011;5729;43.570;27.826;2023-03-01T07:51:04;22.77;;;16.07;;
11348;SDS011;5729;43.570;27.826;2023-03-01T07:53:30;24.07;;;16.87;;
11348;SDS011;5729;43.570;27.826;2023-03-01T07:58:46;28.17;;;17.43;;
11348;SDS011;5729;43.570;27.826;2023-03-01T08:01:14;25.00;;;17.17;;
11348;SDS011;5729;43.570;27.826;2023-03-01T08:03:41;27.70;;;17.27;;
11348;SDS011;5729;43.570;27.826;2023-03-01T08:06:08;52.30;;;29.37;;
11348;SDS011;5729;43.570;27.826;2023-03-01T08:08:35;56.57;;;29.07;;
11348;SDS011;5729;43.570;27.826;2023-03-01T08:11:02;49.80;;;26.57;;
11348;SDS011;5729;43.570;27.826;2023-03-01T08:13:29;34.13;;;19.00;;
11348;SDS011;5729;43.570;27.826;2023-03-01T08:15:59;30.67;;;19.60;;
11348;SDS011;5729;43.570;27.826;2023-03-01T08:18:26;28.17;;;17.07;;
11348;SDS011;5729;43.570;27.826;2023-03-01T08:20:51;33.67;;;18.77;;
11348;SDS011;5729;43.570;27.826;2023-03-01T08:23:17;37.80;;;21.63;;
11348;SDS011;5729;43.570;27.826;2023-03-01T08:25:42;37.83;;;21.50;;
11348;SDS011;5729;43.570;27.826;2023-03-01T08:28:08;28.83;;;16.70;;
11348;SDS011;5729;43.570;27.826;2023-03-01T08:30:33;27.73;;;16.40;;
11348;SDS011;5729;43.570;27.826;2023-03-01T08:32:59;27.40;;;17.90;;
11348;SDS011;5729;43.570;27.826;2023-03-01T08:35:24;30.97;;;19.00;;
11348;SDS011;5729;43.570;27.826;2023-03-01T08:37:50;32.00;;;19.57;;
11348;SDS011;5729;43.570;27.826;2023-03-01T08:40:15;26.83;;;18.10;;
11348;SDS011;5729;43.570;27.826;2023-03-01T08:42:41;32.37;;;18.67;;
11348;SDS011;5729;43.570;27.826;2023-03-01T08:45:08;27.67;;;18.35;;
11348;SDS011;5729;43.570;27.826;2023-03-01T08:47:34;25.95;;;16.80;;
11348;SDS011;5729;43.570;27.826;2023-03-01T08:50:00;27.93;;;17.90;;
11348;SDS011;5729;43.570;27.826;2023-03-01T08:52:25;24.08;;;16.15;;
11348;SDS011;5729;43.570;27.826;2023-03-01T08:54:51;33.17;;;18.13;;
11348;SDS011;5729;43.570;27.826;2023-03-01T08:57:17;27.67;;;17.73;;
11348;SDS011;5729;43.570;27.826;2023-03-01T08:59:42;32.95;;;17.80;;
11348;SDS011;5729;43.570;27.826;2023-03-01T09:02:12;27.45;;;16.98;;
11348;SDS011;5729;43.570;27.826;2023-03-01T09:04:40;29.83;;;17.73;;
11348;SDS011;5729;43.570;27.826;2023-03-01T09:07:06;26.98;;;16.48;;
11348;SDS011;5729;43.570;27.826;2023-03-01T09:09:32;24.83;;;17.52;;
11348;SDS011;5729;43.570;27.826;2023-03-01T09:11:57;30.65;;;17.30;;
11348;SDS011;5729;43.570;27.826;2023-03-01T09:14:23;36.05;;;18.27;;
11348;SDS011;5729;43.570;27.826;2023-03-01T09:16:48;30.30;;;20.67;;
11348;SDS011;5729;43.570;27.826;2023-03-01T09:19:14;32.63;;;21.88;;
11348;SDS011;5729;43.570;27.826;2023-03-01T09:21:39;31.00;;;20.92;;
11348;SDS011;5729;43.570;27.826;2023-03-01T09:24:05;34.08;;;20.17;;
11348;SDS011;5729;43.570;27.826;2023-03-01T09:26:38;33.05;;;20.10;;
11348;SDS011;5729;43.570;27.826;2023-03-01T09:29:03;27.77;;;17.80;;
11348;SDS011;5729;43.570;27.826;2023-03-01T09:31:28;27.85;;;19.38;;
11348;SDS011;5729;43.570;27.826;2023-03-01T09:33:54;28.77;;;18.80;;
11348;SDS011;5729;43.570;27.826;2023-03-01T09:36:20;29.30;;;20.58;;
11348;SDS011;5729;43.570;27.826;2023-03-01T09:38:50;30.20;;;19.58;;
11348;SDS011;5729;43.570;27.826;2023-03-01T09:46:42;25.67;;;17.95;;
11348;SDS011;5729;43.570;27.826;2023-03-01T09:49:14;25.90;;;19.20;;
11348;SDS011;5729;43.570;27.826;2023-03-01T09:51:54;29.33;;;20.33;;
11348;SDS011;5729;43.570;27.826;2023-03-01T09:54:25;28.85;;;19.60;;
11348;SDS011;5729;43.570;27.826;2023-03-01T10:02:30;22.75;;;15.10;;
11348;SDS011;5729;43.570;27.826;2023-03-01T10:10:39;14.30;;;9.82;;
11348;SDS011;5729;43.570;27.826;2023-03-01T10:13:17;19.35;;;11.45;;
11348;SDS011;5729;43.570;27.826;2023-03-01T10:16:00;14.00;;;9.60;;
11348;SDS011;5729;43.570;27.826;2023-03-01T10:18:39;16.00;;;9.73;;
11348;SDS011;5729;43.570;27.826;2023-03-01T10:23:42;16.52;;;10.50;;
11348;SDS011;5729;43.570;27.826;2023-03-01T10:31:27;16.10;;;11.07;;
11348;SDS011;5729;43.570;27.826;2023-03-01T10:36:43;16.13;;;10.52;;
11348;SDS011;5729;43.570;27.826;2023-03-01T10:39:17;13.82;;;9.35;;
11348;SDS011;5729;43.570;27.826;2023-03-01T10:42:19;21.80;;;11.45;;
11348;SDS011;5729;43.570;27.826;2023-03-01T10:44:48;12.57;;;9.70;;
11348;SDS011;5729;43.570;27.826;2023-03-01T10:47:18;16.63;;;11.18;;
11348;SDS011;5729;43.570;27.826;2023-03-01T10:52:27;12.95;;;9.63;;
11348;SDS011;5729;43.570;27.826;2023-03-01T10:54:56;21.65;;;12.35;;
11348;SDS011;5729;43.570;27.826;2023-03-01T10:57:32;16.48;;;11.90;;
11348;SDS011;5729;43.570;27.826;2023-03-01T11:00:14;17.92;;;12.32;;
11348;SDS011;5729;43.570;27.826;2023-03-01T11:02:45;17.35;;;12.38;;
11348;SDS011;5729;43.570;27.826;2023-03-01T11:10:32;16.02;;;10.75;;
11348;SDS011;5729;43.570;27.826;2023-03-01T11:15:37;13.93;;;11.32;;
11348;SDS011;5729;43.570;27.826;2023-03-01T11:18:03;16.83;;;12.35;;
11348;SDS011;5729;43.570;27.826;2023-03-01T11:20:35;20.23;;;15.27;;
11348;SDS011;5729;43.570;27.826;2023-03-01T11:23:14;24.88;;;16.15;;
11348;SDS011;5729;43.570;27.826;2023-03-01T11:25:47;15.57;;;11.02;;
11348;SDS011;5729;43.570;27.826;2023-03-01T11:28:18;20.50;;;13.30;;
11348;SDS011;5729;43.570;27.826;2023-03-01T11:38:45;16.08;;;11.23;;
11348;SDS011;5729;43.570;27.826;2023-03-01T11:41:20;14.50;;;9.90;;
11348;SDS011;5729;43.570;27.826;2023-03-01T11:51:42;23.02;;;12.20;;
11348;SDS011;5729;43.570;27.826;2023-03-01T12:02:40;24.30;;;15.00;;
11348;SDS011;5729;43.570;27.826;2023-03-01T12:11:03;18.07;;;13.33;;
11348;SDS011;5729;43.570;27.826;2023-03-01T12:13:47;25.15;;;15.73;;
11348;SDS011;5729;43.570;27.826;2023-03-01T12:16:32;21.98;;;13.88;;
11348;SDS011;5729;43.570;27.826;2023-03-01T12:30:15;19.13;;;11.15;;
11348;SDS011;5729;43.570;27.826;2023-03-01T12:38:15;15.70;;;10.27;;
11348;SDS011;5729;43.570;27.826;2023-03-01T12:40:46;14.68;;;10.02;;
11348;SDS011;5729;43.570;27.826;2023-03-01T12:49:10;13.30;;;10.52;;
11348;SDS011;5729;43.570;27.826;2023-03-01T12:51:42;21.90;;;12.20;;
11348;SDS011;5729;43.570;27.826;2023-03-01T12:54:16;16.02;;;11.73;;
11348;SDS011;5729;43.570;27.826;2023-03-01T12:56:51;17.92;;;11.43;;
11348;SDS011;5729;43.570;27.826;2023-03-01T13:07:59;15.30;;;12.27;;
11348;SDS011;5729;43.570;27.826;2023-03-01T13:15:33;17.50;;;13.20;;
11348;SDS011;5729;43.570;27.826;2023-03-01T13:33:52;18.08;;;12.93;;
11348;SDS011;5729;43.570;27.826;2023-03-01T13:38:55;22.08;;;13.05;;
11348;SDS011;5729;43.570;27.826;2023-03-01T13:46:49;14.43;;;11.38;;
11348;SDS011;5729;43.570;27.826;2023-03-01T13:49:17;16.88;;;12.05;;
11348;SDS011;5729;43.570;27.826;2023-03-01T13:51:46;16.95;;;12.23;;
11348;SDS011;5729;43.570;27.826;2023-03-01T13:54:14;19.17;;;13.98;;
11348;SDS011;5729;43.570;27.826;2023-03-01T13:56:41;19.30;;;13.07;;
11348;SDS011;5729;43.570;27.826;2023-03-01T13:59:19;20.02;;;12.73;;
11348;SDS011;5729;43.570;27.826;2023-03-01T14:01:56;17.43;;;11.93;;
11348;SDS011;5729;43.570;27.826;2023-03-01T14:04:31;19.40;;;13.02;;
11348;SDS011;5729;43.570;27.826;2023-03-01T14:07:17;19.83;;;14.23;;
11348;SDS011;5729;43.570;27.826;2023-03-01T14:09:45;22.45;;;14.77;;
11348;SDS011;5729;43.570;27.826;2023-03-01T14:20:21;19.42;;;13.65;;
11348;SDS011;5729;43.570;27.826;2023-03-01T14:22:50;19.55;;;13.07;;
11348;SDS011;5729;43.570;27.826;2023-03-01T14:30:45;121.90;;;48.28;;
11348;SDS011;5729;43.570;27.826;2023-03-01T14:33:19;20.30;;;12.82;;
11348;SDS011;5729;43.570;27.826;2023-03-01T14:35:51;22.35;;;18.08;;
11348;SDS011;5729;43.570;27.826;2023-03-01T14:38:32;15.50;;;12.30;;
11348;SDS011;5729;43.570;27.826;2023-03-01T14:41:06;16.15;;;12.30;;
11348;SDS011;5729;43.570;27.826;2023-03-01T14:43:34;14.98;;;11.27;;
11348;SDS011;5729;43.570;27.826;2023-03-01T14:46:01;15.82;;;12.27;;
11348;SDS011;5729;43.570;27.826;2023-03-01T14:48:27;17.27;;;12.18;;
11348;SDS011;5729;43.570;27.826;2023-03-01T14:50:54;17.37;;;12.97;;
11348;SDS011;5729;43.570;27.826;2023-03-01T14:53:24;15.23;;;12.13;;
11348;SDS011;5729;43.570;27.826;2023-03-01T14:55:53;24.15;;;16.92;;
11348;SDS011;5729;43.570;27.826;2023-03-01T14:58:24;20.58;;;13.20;;
11348;SDS011;5729;43.570;27.826;2023-03-01T15:01:00;18.88;;;12.48;;
11348;SDS011;5729;43.570;27.826;2023-03-01T15:03:33;41.83;;;29.42;;
11348;SDS011;5729;43.570;27.826;2023-03-01T15:06:04;48.30;;;35.30;;
11348;SDS011;5729;43.570;27.826;2023-03-01T15:08:31;19.57;;;13.43;;
11348;SDS011;5729;43.570;27.826;2023-03-01T15:11:32;15.68;;;11.68;;
11348;SDS011;5729;43.570;27.826;2023-03-01T15:13:55;25.48;;;13.73;;
11348;SDS011;5729;43.570;27.826;2023-03-01T15:16:22;19.40;;;12.55;;
11348;SDS011;5729;43.570;27.826;2023-03-01T15:18:50;15.27;;;11.05;;
11348;SDS011;5729;43.570;27.826;2023-03-01T15:21:29;18.47;;;14.07;;
11348;SDS011;5729;43.570;27.826;2023-03-01T15:23:58;42.03;;;30.83;;
11348;SDS011;5729;43.570;27.826;2023-03-01T15:26:35;130.57;;;86.13;;
11348;SDS011;5729;43.570;27.826;2023-03-01T15:29:10;36.03;;;25.48;;
11348;SDS011;5729;43.570;27.826;2023-03-01T15:31:42;26.93;;;19.00;;
11348;SDS011;5729;43.570;27.826;2023-03-01T15:34:21;26.98;;;21.38;;
11348;SDS011;5729;43.570;27.826;2023-03-01T15:36:55;23.90;;;18.02;;
11348;SDS011;5729;43.570;27.826;2023-03-01T15:41:52;34.17;;;25.13;;
11348;SDS011;5729;43.570;27.826;2023-03-01T15:44:24;19.35;;;14.32;;
11348;SDS011;5729;43.570;27.826;2023-03-01T15:46:49;33.63;;;20.67;;
11348;SDS011;5729;43.570;27.826;2023-03-01T15:52:05;76.97;;;49.85;;
11348;SDS011;5729;43.570;27.826;2023-03-01T15:55:00;29.20;;;19.25;;
11348;SDS011;5729;43.570;27.826;2023-03-01T15:57:27;24.92;;;17.88;;
11348;SDS011;5729;43.570;27.826;2023-03-01T15:59:53;24.98;;;17.40;;
11348;SDS011;5729;43.570;27.826;2023-03-01T16:02:21;59.55;;;37.80;;
11348;SDS011;5729;43.570;27.826;2023-03-01T16:04:48;48.30;;;34.83;;
11348;SDS011;5729;43.570;27.826;2023-03-01T16:07:13;32.40;;;20.50;;
11348;SDS011;5729;43.570;27.826;2023-03-01T16:09:39;27.85;;;18.85;;
11348;SDS011;5729;43.570;27.826;2023-03-01T16:12:05;27.85;;;20.30;;
11348;SDS011;5729;43.570;27.826;2023-03-01T16:14:33;28.50;;;18.95;;
11348;SDS011;5729;43.570;27.826;2023-03-01T16:16:59;39.85;;;30.35;;
11348;SDS011;5729;43.570;27.826;2023-03-01T16:19:24;34.97;;;24.00;;
11348;SDS011;5729;43.570;27.826;2023-03-01T16:21:50;27.17;;;19.52;;
11348;SDS011;5729;43.570;27.826;2023-03-01T16:24:15;25.05;;;18.40;;
11348;SDS011;5729;43.570;27.826;2023-03-01T16:26:42;30.00;;;18.73;;
11348;SDS011;5729;43.570;27.826;2023-03-01T16:29:07;24.13;;;15.55;;
11348;SDS011;5729;43.570;27.826;2023-03-01T16:31:33;23.92;;;15.93;;
11348;SDS011;5729;43.570;27.826;2023-03-01T16:34:04;79.68;;;43.35;;
11348;SDS011;5729;43.570;27.826;2023-03-01T16:36:29;26.20;;;19.13;;
11348;SDS011;5729;43.570;27.826;2023-03-01T16:38:55;24.25;;;18.38;;
11348;SDS011;5729;43.570;27.826;2023-03-01T16:41:23;29.80;;;18.40;;
11348;SDS011;5729;43.570;27.826;2023-03-01T16:43:49;26.90;;;19.27;;
11348;SDS011;5729;43.570;27.826;2023-03-01T16:46:19;23.13;;;16.23;;
11348;SDS011;5729;43.570;27.826;2023-03-01T16:48:47;30.00;;;19.33;;
11348;SDS011;5729;43.570;27.826;2023-03-01T16:51:13;24.52;;;17.40;;
11348;SDS011;5729;43.570;27.826;2023-03-01T16:53:39;23.27;;;15.15;;
11348;SDS011;5729;43.570;27.826;2023-03-01T16:56:06;34.53;;;18.57;;
11348;SDS011;5729;43.570;27.826;2023-03-01T16:58:33;23.93;;;16.60;;
11348;SDS011;5729;43.570;27.826;2023-03-01T17:03:33;68.40;;;42.40;;
11348;SDS011;5729;43.570;27.826;2023-03-01T17:06:02;32.35;;;23.67;;
11348;SDS011;5729;43.570;27.826;2023-03-01T17:08:33;32.85;;;22.35;;
11348;SDS011;5729;43.570;27.826;2023-03-01T17:11:03;64.50;;;38.20;;
11348;SDS011;5729;43.570;27.826;2023-03-01T17:13:33;140.50;;;80.93;;